Time;durP1;ratioP1;P1;durP2;ratioP2;P2;SDS_P1;SDS_P2;PMS_P1;PMS_P2;Temp;Humidity;BMP_temperature;BMP_pressure;BME280_temperature;BME280_humidity;BME280_pressure;Samples;Min_cycle;Max_cycle;Signal;HPM_P1;HPM_P2
2023/02/09 00:09:20;;;;;;;0.20;0.10;;;8.40;99.90;;;;;;21139083;28;20404;-64
2023/02/09 00:19:24;;;;;;;0.20;0.10;;;8.40;99.90;;;;;;21156720;28;20417;-65
2023/02/09 00:29:29;;;;;;;0.20;0.10;;;8.40;99.90;;;;;;21155716;28;20395;-66
2023/02/09 00:39:33;;;;;;;0.20;0.10;;;8.30;99.90;;;;;;21136680;28;20442;-66
2023/02/09 00:49:39;;;;;;;0.20;0.10;;;8.30;99.90;;;;;;21135642;28;20383;-65
2023/02/09 00:59:43;;;;;;;0.20;0.10;;;8.10;99.90;;;;;;21153157;28;20399;-65
2023/02/09 01:09:49;;;;;;;0.20;0.10;;;7.90;99.90;;;;;;21152223;28;20459;-66
2023/02/09 01:19:53;;;;;;;0.20;0.10;;;8.20;99.90;;;;;;21133244;28;20426;-66
2023/02/09 01:29:59;;;;;;;0.20;0.10;;;8.30;99.90;;;;;;21150534;28;20463;-65
2023/02/09 01:40:04;;;;;;;0.20;0.10;;;8.40;99.90;;;;;;21150177;28;20417;-65
2023/02/09 01:50:09;;;;;;;0.20;0.10;;;8.50;99.90;;;;;;21130386;28;20391;-65
2023/02/09 02:00:16;;;;;;;0.20;0.10;;;8.50;99.90;;;;;;21148707;28;20391;-66
2023/02/09 02:10:21;;;;;;;0.20;0.10;;;8.50;99.90;;;;;;21144050;28;20398;-65
2023/02/09 02:21:02;;;;;;;0.20;0.10;;;8.60;99.90;;;;;;21147039;28;20398;-64
2023/02/09 02:31:33;;;;;;;0.20;0.10;;;8.70;99.90;;;;;;21098331;28;20762;-65
2023/02/09 02:52:08;;;;;;;0.20;0.10;;;8.50;99.90;;;;;;21127370;28;20757;-65
2023/02/09 03:02:18;;;;;;;0.20;0.10;;;8.60;99.90;;;;;;21110467;28;21102;-65
2023/02/09 03:12:34;;;;;;;0.20;0.10;;;8.50;99.90;;;;;;21126009;28;20410;-65
2023/02/09 03:22:42;;;;;;;0.20;0.10;;;8.40;99.90;;;;;;21125315;28;20397;-65
2023/02/09 03:32:48;;;;;;;0.20;0.10;;;8.20;99.90;;;;;;21073270;28;20872;-65
2023/02/09 03:42:53;;;;;;;0.20;0.10;;;8.00;99.90;;;;;;21073638;28;20462;-65
2023/02/09 03:52:57;;;;;;;0.20;0.10;;;7.90;99.90;;;;;;21073089;28;20436;-65
2023/02/09 04:03:02;;;;;;;0.20;0.10;;;7.80;99.90;;;;;;21073512;28;20408;-65
2023/02/09 04:13:06;;;;;;;0.20;0.10;;;7.80;99.90;;;;;;21054269;28;20891;-64
2023/02/09 04:23:11;;;;;;;0.20;0.10;;;7.60;99.90;;;;;;21070764;28;20435;-63
2023/02/09 04:33:15;;;;;;;0.20;0.10;;;7.00;99.90;;;;;;21069299;28;20432;-65
2023/02/09 04:43:20;;;;;;;0.20;0.10;;;6.80;99.90;;;;;;21067570;28;20407;-64
2023/02/09 04:53:24;;;;;;;0.20;0.10;;;7.00;99.90;;;;;;21068801;28;20410;-64
2023/02/09 05:03:30;;;;;;;0.20;0.10;;;7.00;99.90;;;;;;21066965;28;20749;-64
2023/02/09 05:13:33;;;;;;;0.20;0.10;;;6.90;99.90;;;;;;21067437;28;20823;-66
2023/02/09 05:23:39;;;;;;;0.20;0.10;;;6.90;99.90;;;;;;21066511;28;20523;-65
2023/02/09 05:33:42;;;;;;;0.20;0.10;;;6.90;99.90;;;;;;21143364;28;20407;-65
2023/02/09 05:43:47;;;;;;;0.20;0.10;;;7.10;99.90;;;;;;21148475;28;20402;-66
2023/02/09 05:53:53;;;;;;;0.20;0.10;;;7.30;99.90;;;;;;21145058;28;20414;-65
2023/02/09 06:03:58;;;;;;;0.20;0.10;;;7.20;99.90;;;;;;21129601;28;20712;-65
2023/02/09 06:14:02;;;;;;;0.20;0.10;;;6.90;99.90;;;;;;21128495;28;20483;-66
2023/02/09 06:24:07;;;;;;;0.20;0.10;;;6.90;99.90;;;;;;21145940;28;20545;-66
2023/02/09 06:34:11;;;;;;;0.20;0.10;;;7.00;99.90;;;;;;21126874;28;21063;-66
2023/02/09 06:44:16;;;;;;;0.20;0.10;;;7.60;99.90;;;;;;21109343;28;20399;-66
2023/02/09 06:54:20;;;;;;;0.20;0.10;;;8.10;99.90;;;;;;21122887;28;20484;-66
2023/02/09 07:04:26;;;;;;;0.20;0.10;;;8.10;99.90;;;;;;21151045;28;20489;-67
2023/02/09 07:14:30;;;;;;;0.20;0.10;;;7.90;99.90;;;;;;21121928;28;20438;-65
2023/02/09 07:24:35;;;;;;;0.20;0.10;;;8.00;99.90;;;;;;21138852;28;20383;-64
2023/02/09 07:34:39;;;;;;;0.20;0.10;;;8.10;99.90;;;;;;21138317;28;21104;-65
2023/02/09 07:44:45;;;;;;;0.20;0.10;;;8.10;99.90;;;;;;21156436;28;20405;-65
2023/02/09 07:54:50;;;;;;;0.20;0.10;;;8.20;99.90;;;;;;21149036;28;20418;-64
2023/02/09 08:04:58;;;;;;;0.20;0.10;;;8.50;99.90;;;;;;21153045;28;20438;-67
2023/02/09 08:15:01;;;;;;;0.20;0.10;;;8.60;99.90;;;;;;21150605;28;20442;-64
2023/02/09 08:25:07;;;;;;;0.20;0.10;;;8.60;99.90;;;;;;21131978;28;20406;-66
2023/02/09 08:35:12;;;;;;;0.20;0.10;;;8.60;99.90;;;;;;21132502;28;20991;-65
2023/02/09 08:45:17;;;;;;;0.20;0.10;;;8.60;99.90;;;;;;21150136;28;20413;-66
2023/02/09 08:55:21;;;;;;;0.20;0.10;;;9.10;99.90;;;;;;21129944;28;20406;-65
2023/02/09 09:05:26;;;;;;;0.20;0.10;;;9.40;99.90;;;;;;21130629;28;20459;-66
2023/02/09 09:15:30;;;;;;;0.20;0.10;;;9.70;99.90;;;;;;21111863;28;20417;-66
2023/02/09 09:25:35;;;;;;;0.20;0.10;;;10.30;99.90;;;;;;21127774;28;20909;-67
2023/02/09 09:35:39;;;;;;;0.20;0.10;;;10.30;99.90;;;;;;21133729;27;20477;-66
2023/02/09 09:45:47;;;;;;;0.20;0.10;;;10.70;99.90;;;;;;21119416;28;20413;-67
2023/02/09 09:55:58;;;;;;;0.20;0.10;;;10.80;99.90;;;;;;21068770;28;20572;-67
2023/02/09 10:06:13;;;;;;;0.20;0.10;;;11.10;99.90;;;;;;21056665;28;20499;-66
2023/02/09 10:16:20;;;;;;;0.20;0.10;;;11.60;99.90;;;;;;21059609;28;20776;-66
2023/02/09 10:26:27;;;;;;;0.20;0.10;;;11.90;99.90;;;;;;21058838;28;20412;-67
2023/02/09 10:36:33;;;;;;;0.20;0.10;;;12.20;99.90;;;;;;21058185;28;20412;-66
2023/02/09 10:46:39;;;;;;;0.20;0.10;;;12.00;99.90;;;;;;21074139;28;20720;-65
2023/02/09 10:56:45;;;;;;;0.20;0.10;;;12.20;99.90;;;;;;21114868;28;20473;-65
2023/02/09 11:06:52;;;;;;;0.20;0.10;;;12.90;99.90;;;;;;21105916;28;20477;-65
2023/02/09 11:17:14;;;;;;;0.20;0.10;;;13.80;99.90;;;;;;21140529;28;20414;-66
2023/02/09 11:27:34;;;;;;;0.20;0.10;;;14.00;99.90;;;;;;21109097;28;20436;-67
2023/02/09 11:37:51;;;;;;;0.20;0.10;;;14.10;99.90;;;;;;21036087;28;20526;-65
2023/02/09 11:48:04;;;;;;;0.20;0.10;;;13.30;99.90;;;;;;21107118;28;20766;-65
2023/02/09 11:58:26;;;;;;;0.20;0.07;;;15.10;99.90;;;;;;21155054;28;20426;-66
2023/02/09 12:08:44;;;;;;;0.20;0.00;;;15.60;99.90;;;;;;21120057;28;20741;-65
2023/02/09 12:18:48;;;;;;;0.20;0.10;;;15.60;99.90;;;;;;21136106;28;20453;-66
2023/02/09 12:29:03;;;;;;;0.20;0.10;;;14.90;99.90;;;;;;21109448;28;20400;-65
2023/02/09 12:39:24;;;;;;;0.20;0.10;;;16.10;99.90;;;;;;21066505;28;20422;-68
2023/02/09 12:49:34;;;;;;;0.20;0.00;;;16.00;99.90;;;;;;21150443;27;20395;-65
2023/02/09 12:59:37;;;;;;;0.20;0.10;;;17.40;99.90;;;;;;21129631;28;20411;-64
2023/02/09 13:09:45;;;;;;;0.20;0.10;;;15.60;99.90;;;;;;21148386;28;20397;-64
2023/02/09 13:20:14;;;;;;;0.20;0.10;;;17.20;99.90;;;;;;21126458;28;20448;-65
2023/02/09 13:30:27;;;;;;;0.20;0.10;;;15.60;99.90;;;;;;21108186;28;20633;-65
2023/02/09 13:40:35;;;;;;;0.20;0.10;;;14.20;99.90;;;;;;21056055;28;20419;-65
2023/02/09 13:50:47;;;;;;;0.20;0.10;;;12.80;99.90;;;;;;21089124;28;20503;-65
2023/02/09 14:00:53;;;;;;;0.20;0.10;;;12.50;99.90;;;;;;21060653;28;20751;-65
2023/02/09 14:11:05;;;;;;;0.20;0.10;;;12.60;99.90;;;;;;21058631;28;20404;-66
2023/02/09 14:21:21;;;;;;;0.20;0.00;;;12.70;99.90;;;;;;21040950;28;20416;-64
2023/02/09 14:31:27;;;;;;;0.20;0.10;;;12.30;99.90;;;;;;21039686;28;20445;-65
2023/02/09 14:41:35;;;;;;;0.20;0.10;;;12.10;99.90;;;;;;21039232;28;20869;-65
2023/02/09 14:51:43;;;;;;;0.20;0.10;;;11.90;99.90;;;;;;21056400;28;21293;-65
2023/02/09 15:01:47;;;;;;;0.20;0.10;;;12.00;99.90;;;;;;21037641;28;20405;-65
2023/02/09 15:12:05;;;;;;;0.20;0.10;;;12.00;99.90;;;;;;21072246;28;20396;-64
2023/02/09 15:22:12;;;;;;;0.20;0.10;;;12.10;99.90;;;;;;21043077;28;20461;-65
2023/02/09 15:32:19;;;;;;;0.20;0.10;;;11.70;99.90;;;;;;21072272;28;20408;-64
2023/02/09 15:52:46;;;;;;;0.20;0.10;;;12.10;99.90;;;;;;21033792;28;20384;-65
2023/02/09 16:02:51;;;;;;;0.20;0.10;;;14.20;99.90;;;;;;21101135;28;20478;-65
2023/02/09 16:12:57;;;;;;;0.20;0.10;;;12.50;99.90;;;;;;21151091;28;20407;-66
2023/02/09 16:23:01;;;;;;;0.20;0.00;;;11.90;99.90;;;;;;21077648;28;20403;-65
2023/02/09 16:33:25;;;;;;;0.20;0.05;;;11.90;99.90;;;;;;21052140;28;20389;-64
2023/02/09 16:43:29;;;;;;;0.20;0.10;;;11.30;99.90;;;;;;21064436;28;20465;-65
2023/02/09 16:53:39;;;;;;;0.20;0.10;;;11.30;99.90;;;;;;21045771;28;20490;-63
2023/02/09 17:03:45;;;;;;;0.20;0.07;;;11.20;99.90;;;;;;21148760;28;20391;-64
2023/02/09 17:13:50;;;;;;;0.20;0.10;;;10.90;99.90;;;;;;21111188;28;20457;-64
2023/02/09 17:23:56;;;;;;;0.20;0.10;;;10.70;99.90;;;;;;21072648;28;20393;-64
2023/02/09 17:34:03;;;;;;;0.20;0.10;;;10.60;99.90;;;;;;21041798;28;20972;-63
2023/02/09 17:44:14;;;;;;;0.20;0.10;;;10.30;99.90;;;;;;21045873;27;20403;-63
2023/02/09 17:54:39;;;;;;;0.20;0.10;;;10.00;99.90;;;;;;21057043;28;20431;-63
2023/02/09 18:04:46;;;;;;;0.20;0.00;;;9.80;99.90;;;;;;21059070;28;20396;-63
2023/02/09 18:14:51;;;;;;;0.20;0.00;;;9.20;99.90;;;;;;21055751;28;20480;-63
2023/02/09 18:24:58;;;;;;;0.20;0.10;;;8.80;99.90;;;;;;21122465;28;20490;-65
2023/02/09 18:35:04;;;;;;;0.20;0.10;;;8.70;99.90;;;;;;21139403;28;20410;-66
2023/02/09 18:45:10;;;;;;;0.20;0.10;;;8.60;99.90;;;;;;21039715;28;20388;-64
2023/02/09 18:55:15;;;;;;;0.20;0.10;;;8.50;99.90;;;;;;21065252;28;20408;-64
2023/02/09 19:05:19;;;;;;;0.20;0.10;;;8.80;99.90;;;;;;21152433;28;20422;-64
2023/02/09 19:15:26;;;;;;;0.20;0.10;;;9.00;99.90;;;;;;21082982;28;20405;-65
2023/02/09 19:25:30;;;;;;;0.20;0.10;;;8.90;99.90;;;;;;21152463;28;20391;-65
2023/02/09 19:35:35;;;;;;;0.20;0.10;;;9.00;99.90;;;;;;21118776;28;20418;-65
2023/02/09 19:45:39;;;;;;;0.20;0.10;;;9.20;99.90;;;;;;21091632;28;20399;-65
2023/02/09 19:55:49;;;;;;;0.20;0.10;;;8.90;99.90;;;;;;21065986;28;20409;-64
2023/02/09 20:05:53;;;;;;;0.20;0.10;;;8.90;99.90;;;;;;21062769;28;20968;-65
2023/02/09 20:15:58;;;;;;;0.20;0.10;;;8.80;99.90;;;;;;21064885;28;20454;-64
2023/02/09 20:26:02;;;;;;;0.20;0.10;;;8.70;99.90;;;;;;21127817;28;20489;-65
2023/02/09 20:36:08;;;;;;;0.20;0.10;;;8.70;99.90;;;;;;21148196;28;20969;-66
2023/02/09 20:56:41;;;;;;;0.20;0.07;;;8.70;99.90;;;;;;21129041;28;20929;-65
2023/02/09 21:06:45;;;;;;;0.20;0.10;;;8.60;99.90;;;;;;21146714;28;20418;-67
2023/02/09 21:16:54;;;;;;;0.20;0.10;;;8.40;99.90;;;;;;21126691;28;20442;-66
2023/02/09 21:26:59;;;;;;;0.20;0.10;;;8.40;99.90;;;;;;21148654;28;20516;-66
2023/02/09 21:37:08;;;;;;;0.20;0.10;;;8.10;99.90;;;;;;21130653;28;20483;-63
2023/02/09 21:47:12;;;;;;;0.20;0.10;;;8.00;99.90;;;;;;21129063;28;20399;-63
2023/02/09 21:57:18;;;;;;;0.20;0.10;;;7.90;99.90;;;;;;21129506;28;20403;-64
2023/02/09 22:07:22;;;;;;;0.20;0.10;;;7.70;99.90;;;;;;21128056;28;20402;-64
2023/02/09 22:17:27;;;;;;;0.20;0.10;;;7.40;99.90;;;;;;21145516;28;21006;-64
2023/02/09 22:27:31;;;;;;;0.20;0.10;;;7.30;99.90;;;;;;21127275;28;20392;-64
2023/02/09 22:37:37;;;;;;;0.20;0.10;;;7.00;99.90;;;;;;21145076;28;20410;-66
2023/02/09 22:47:41;;;;;;;0.20;0.10;;;6.80;99.90;;;;;;21126040;28;20398;-65
2023/02/09 22:57:46;;;;;;;0.20;0.10;;;6.60;99.90;;;;;;21145193;28;20399;-66
2023/02/09 23:07:50;;;;;;;0.20;0.10;;;6.50;99.90;;;;;;21145366;28;20398;-66
2023/02/09 23:17:55;;;;;;;0.20;0.10;;;6.30;99.90;;;;;;21126225;28;20415;-65
2023/02/09 23:27:59;;;;;;;0.20;0.10;;;6.10;99.90;;;;;;21143596;28;20478;-65
2023/02/09 23:38:04;;;;;;;0.20;0.10;;;6.00;99.90;;;;;;21144535;28;20501;-65
2023/02/09 23:48:08;;;;;;;0.20;0.10;;;6.40;99.90;;;;;;21157074;28;20422;-66
2023/02/09 23:58:13;;;;;;;0.20;0.10;;;6.70;99.90;;;;;;21175124;27;20403;-65
